sensor_id;sensor_type;location;lat;lon;timestamp;temperature;humidity
13521;DHT22;6832;51.186;3.236;2023-03-02T00:00:07;12.40;50.20
13521;DHT22;6832;51.186;3.236;2023-03-02T00:02:42;12.50;50.30
13521;DHT22;6832;51.186;3.236;2023-03-02T00:05:10;12.40;50.20
13521;DHT22;6832;51.186;3.236;2023-03-02T00:07:39;12.40;50.20
13521;DHT22;6832;51.186;3.236;2023-03-02T00:10:06;12.40;50.20
13521;DHT22;6832;51.186;3.236;2023-03-02T00:12:33;12.40;50.20
13521;DHT22;6832;51.186;3.236;2023-03-02T00:15:03;12.40;50.20
13521;DHT22;6832;51.186;3.236;2023-03-02T00:17:31;12.40;50.20
13521;DHT22;6832;51.186;3.236;2023-03-02T00:19:59;12.40;50.20
13521;DHT22;6832;51.186;3.236;2023-03-02T00:22:34;12.40;50.20
13521;DHT22;6832;51.186;3.236;2023-03-02T00:25:01;12.30;50.10
13521;DHT22;6832;51.186;3.236;2023-03-02T00:27:28;12.30;50.10
13521;DHT22;6832;51.186;3.236;2023-03-02T00:29:56;12.40;50.20
13521;DHT22;6832;51.186;3.236;2023-03-02T00:32:23;12.30;50.20
13521;DHT22;6832;51.186;3.236;2023-03-02T00:34:50;12.40;50.20
13521;DHT22;6832;51.186;3.236;2023-03-02T00:37:18;12.30;50.20
13521;DHT22;6832;51.186;3.236;2023-03-02T00:39:45;12.30;50.10
13521;DHT22;6832;51.186;3.236;2023-03-02T00:42:12;12.30;50.20
13521;DHT22;6832;51.186;3.236;2023-03-02T00:44:39;12.40;50.20
13521;DHT22;6832;51.186;3.236;2023-03-02T00:47:05;12.30;50.20
13521;DHT22;6832;51.186;3.236;2023-03-02T00:49:32;12.40;50.20
13521;DHT22;6832;51.186;3.236;2023-03-02T00:52:01;12.30;50.20
13521;DHT22;6832;51.186;3.236;2023-03-02T00:54:29;12.30;50.20
13521;DHT22;6832;51.186;3.236;2023-03-02T00:56:56;12.20;50.10
13521;DHT22;6832;51.186;3.236;2023-03-02T00:59:23;12.30;50.20
13521;DHT22;6832;51.186;3.236;2023-03-02T01:01:53;12.30;50.20
13521;DHT22;6832;51.186;3.236;2023-03-02T01:04:23;12.20;50.10
13521;DHT22;6832;51.186;3.236;2023-03-02T01:06:54;12.30;50.20
13521;DHT22;6832;51.186;3.236;2023-03-02T01:09:21;12.30;50.20
13521;DHT22;6832;51.186;3.236;2023-03-02T01:11:49;12.20;50.10
13521;DHT22;6832;51.186;3.236;2023-03-02T01:14:16;12.20;50.10
13521;DHT22;6832;51.186;3.236;2023-03-02T01:16:44;12.20;50.20
13521;DHT22;6832;51.186;3.236;2023-03-02T01:19:12;12.20;50.10
13521;DHT22;6832;51.186;3.236;2023-03-02T01:21:41;12.20;50.20
13521;DHT22;6832;51.186;3.236;2023-03-02T01:24:09;12.20;50.10
13521;DHT22;6832;51.186;3.236;2023-03-02T01:26:37;12.20;50.10
13521;DHT22;6832;51.186;3.236;2023-03-02T01:29:05;12.20;50.20
13521;DHT22;6832;51.186;3.236;2023-03-02T01:31:32;12.20;50.10
13521;DHT22;6832;51.186;3.236;2023-03-02T01:33:59;12.20;50.20
13521;DHT22;6832;51.186;3.236;2023-03-02T01:36:26;12.10;50.10
13521;DHT22;6832;51.186;3.236;2023-03-02T01:38:53;12.20;50.20
13521;DHT22;6832;51.186;3.236;2023-03-02T01:41:19;12.10;50.10
13521;DHT22;6832;51.186;3.236;2023-03-02T01:43:47;12.10;50.10
13521;DHT22;6832;51.186;3.236;2023-03-02T01:46:17;12.10;50.10
13521;DHT22;6832;51.186;3.236;2023-03-02T01:48:49;12.10;50.10
13521;DHT22;6832;51.186;3.236;2023-03-02T01:51:21;12.10;50.10
13521;DHT22;6832;51.186;3.236;2023-03-02T01:53:51;12.10;50.10
13521;DHT22;6832;51.186;3.236;2023-03-02T01:56:21;12.10;50.10
13521;DHT22;6832;51.186;3.236;2023-03-02T01:58:51;12.10;50.10
13521;DHT22;6832;51.186;3.236;2023-03-02T02:01:21;12.10;50.10
13521;DHT22;6832;51.186;3.236;2023-03-02T02:03:49;12.10;50.00
13521;DHT22;6832;51.186;3.236;2023-03-02T02:06:20;12.00;50.00
13521;DHT22;6832;51.186;3.236;2023-03-02T02:08:49;12.00;50.00
13521;DHT22;6832;51.186;3.236;2023-03-02T02:11:17;12.10;50.10
13521;DHT22;6832;51.186;3.236;2023-03-02T02:13:45;12.00;50.00
13521;DHT22;6832;51.186;3.236;2023-03-02T02:16:12;12.00;50.00
13521;DHT22;6832;51.186;3.236;2023-03-02T02:18:42;12.00;50.00
13521;DHT22;6832;51.186;3.236;2023-03-02T02:21:12;12.00;50.00
13521;DHT22;6832;51.186;3.236;2023-03-02T02:23:43;12.00;50.00
13521;DHT22;6832;51.186;3.236;2023-03-02T02:26:18;12.00;50.00
13521;DHT22;6832;51.186;3.236;2023-03-02T02:28:51;12.00;50.00
13521;DHT22;6832;51.186;3.236;2023-03-02T02:31:25;12.00;50.00
13521;DHT22;6832;51.186;3.236;2023-03-02T02:33:55;11.90;49.90
13521;DHT22;6832;51.186;3.236;2023-03-02T02:36:28;12.00;50.00
13521;DHT22;6832;51.186;3.236;2023-03-02T02:39:00;12.00;50.00
13521;DHT22;6832;51.186;3.236;2023-03-02T02:41:32;12.00;50.00
13521;DHT22;6832;51.186;3.236;2023-03-02T02:43:59;11.90;49.90
13521;DHT22;6832;51.186;3.236;2023-03-02T02:46:27;12.00;50.00
13521;DHT22;6832;51.186;3.236;2023-03-02T02:48:54;11.90;49.90
13521;DHT22;6832;51.186;3.236;2023-03-02T02:51:24;11.90;50.00
13521;DHT22;6832;51.186;3.236;2023-03-02T02:53:57;11.90;49.90
13521;DHT22;6832;51.186;3.236;2023-03-02T02:56:25;11.90;49.90
13521;DHT22;6832;51.186;3.236;2023-03-02T02:58:56;11.90;50.00
13521;DHT22;6832;51.186;3.236;2023-03-02T03:01:25;11.90;50.00
13521;DHT22;6832;51.186;3.236;2023-03-02T03:03:54;11.80;49.90
13521;DHT22;6832;51.186;3.236;2023-03-02T03:06:24;11.90;50.00
13521;DHT22;6832;51.186;3.236;2023-03-02T03:09:02;11.90;50.00
13521;DHT22;6832;51.186;3.236;2023-03-02T03:11:31;11.90;49.90
13521;DHT22;6832;51.186;3.236;2023-03-02T03:14:08;11.80;49.90
13521;DHT22;6832;51.186;3.236;2023-03-02T03:16:36;11.80;50.50
13521;DHT22;6832;51.186;3.236;2023-03-02T03:19:14;11.80;49.90
13521;DHT22;6832;51.186;3.236;2023-03-02T03:21:43;11.80;49.90
13521;DHT22;6832;51.186;3.236;2023-03-02T03:24:10;11.80;49.90
13521;DHT22;6832;51.186;3.236;2023-03-02T03:26:37;11.80;49.90
13521;DHT22;6832;51.186;3.236;2023-03-02T03:29:06;11.80;50.00
13521;DHT22;6832;51.186;3.236;2023-03-02T03:31:33;11.80;49.90
13521;DHT22;6832;51.186;3.236;2023-03-02T03:34:00;11.80;49.90
13521;DHT22;6832;51.186;3.236;2023-03-02T03:36:28;11.80;49.90
13521;DHT22;6832;51.186;3.236;2023-03-02T03:38:56;11.80;49.90
13521;DHT22;6832;51.186;3.236;2023-03-02T03:41:23;11.80;49.90
13521;DHT22;6832;51.186;3.236;2023-03-02T03:43:51;11.80;49.90
13521;DHT22;6832;51.186;3.236;2023-03-02T03:46:19;11.80;49.90
13521;DHT22;6832;51.186;3.236;2023-03-02T03:48:46;11.80;49.90
13521;DHT22;6832;51.186;3.236;2023-03-02T03:51:13;11.70;49.80
13521;DHT22;6832;51.186;3.236;2023-03-02T03:53:40;11.70;49.80
13521;DHT22;6832;51.186;3.236;2023-03-02T03:56:07;11.70;49.80
13521;DHT22;6832;51.186;3.236;2023-03-02T03:58:34;11.70;49.80
13521;DHT22;6832;51.186;3.236;2023-03-02T04:01:01;11.70;49.80
13521;DHT22;6832;51.186;3.236;2023-03-02T04:03:32;11.70;49.80
13521;DHT22;6832;51.186;3.236;2023-03-02T04:05:59;11.70;49.80
13521;DHT22;6832;51.186;3.236;2023-03-02T04:08:26;11.70;49.80
13521;DHT22;6832;51.186;3.236;2023-03-02T04:10:53;11.70;49.80
13521;DHT22;6832;51.186;3.236;2023-03-02T04:13:20;11.70;49.80
13521;DHT22;6832;51.186;3.236;2023-03-02T04:15:46;11.70;49.80
13521;DHT22;6832;51.186;3.236;2023-03-02T04:18:13;11.70;49.90
13521;DHT22;6832;51.186;3.236;2023-03-02T04:20:42;11.70;49.80
13521;DHT22;6832;51.186;3.236;2023-03-02T04:23:09;11.70;49.80
13521;DHT22;6832;51.186;3.236;2023-03-02T04:25:36;11.70;49.80
13521;DHT22;6832;51.186;3.236;2023-03-02T04:28:03;11.60;49.70
13521;DHT22;6832;51.186;3.236;2023-03-02T04:30:30;11.70;49.80
13521;DHT22;6832;51.186;3.236;2023-03-02T04:32:57;11.60;49.80
13521;DHT22;6832;51.186;3.236;2023-03-02T04:35:24;11.70;49.90
13521;DHT22;6832;51.186;3.236;2023-03-02T04:37:52;11.60;49.70
13521;DHT22;6832;51.186;3.236;2023-03-02T04:40:19;11.60;49.80
13521;DHT22;6832;51.186;3.236;2023-03-02T04:42:46;11.60;49.80
13521;DHT22;6832;51.186;3.236;2023-03-02T04:45:13;11.60;49.80
13521;DHT22;6832;51.186;3.236;2023-03-02T04:47:40;11.60;49.80
13521;DHT22;6832;51.186;3.236;2023-03-02T04:50:09;11.60;49.70
13521;DHT22;6832;51.186;3.236;2023-03-02T04:52:36;11.60;49.70
13521;DHT22;6832;51.186;3.236;2023-03-02T04:55:05;11.60;49.70
13521;DHT22;6832;51.186;3.236;2023-03-02T04:57:32;11.60;49.80
13521;DHT22;6832;51.186;3.236;2023-03-02T04:59:59;11.60;49.80
13521;DHT22;6832;51.186;3.236;2023-03-02T05:02:26;11.50;49.70
13521;DHT22;6832;51.186;3.236;2023-03-02T05:04:53;11.60;49.70
13521;DHT22;6832;51.186;3.236;2023-03-02T05:07:20;11.60;49.80
13521;DHT22;6832;51.186;3.236;2023-03-02T05:09:47;11.60;49.70
13521;DHT22;6832;51.186;3.236;2023-03-02T05:12:15;11.60;49.70
13521;DHT22;6832;51.186;3.236;2023-03-02T05:14:43;11.60;49.70
13521;DHT22;6832;51.186;3.236;2023-03-02T05:17:10;11.60;49.70
13521;DHT22;6832;51.186;3.236;2023-03-02T05:19:37;11.50;49.70
13521;DHT22;6832;51.186;3.236;2023-03-02T05:22:04;11.60;49.70
13521;DHT22;6832;51.186;3.236;2023-03-02T05:24:31;11.60;49.70
13521;DHT22;6832;51.186;3.236;2023-03-02T05:26:58;11.50;49.70
13521;DHT22;6832;51.186;3.236;2023-03-02T05:29:26;11.50;49.70
13521;DHT22;6832;51.186;3.236;2023-03-02T05:31:53;11.50;49.60
13521;DHT22;6832;51.186;3.236;2023-03-02T05:34:20;11.50;49.60
13521;DHT22;6832;51.186;3.236;2023-03-02T05:36:46;11.50;49.70
13521;DHT22;6832;51.186;3.236;2023-03-02T05:39:15;11.50;49.70
13521;DHT22;6832;51.186;3.236;2023-03-02T05:41:45;11.50;49.70
13521;DHT22;6832;51.186;3.236;2023-03-02T05:44:11;11.50;49.70
13521;DHT22;6832;51.186;3.236;2023-03-02T05:46:40;11.50;49.60
13521;DHT22;6832;51.186;3.236;2023-03-02T05:49:06;11.50;49.60
13521;DHT22;6832;51.186;3.236;2023-03-02T05:51:35;11.50;49.70
13521;DHT22;6832;51.186;3.236;2023-03-02T05:54:02;11.50;49.80
13521;DHT22;6832;51.186;3.236;2023-03-02T05:56:29;11.50;49.60
13521;DHT22;6832;51.186;3.236;2023-03-02T05:58:56;11.50;49.70
13521;DHT22;6832;51.186;3.236;2023-03-02T06:01:22;11.50;49.70
13521;DHT22;6832;51.186;3.236;2023-03-02T06:03:51;11.50;49.70
13521;DHT22;6832;51.186;3.236;2023-03-02T06:06:17;11.40;49.60
13521;DHT22;6832;51.186;3.236;2023-03-02T06:08:44;11.50;49.80
13521;DHT22;6832;51.186;3.236;2023-03-02T06:11:12;11.50;49.70
13521;DHT22;6832;51.186;3.236;2023-03-02T06:13:39;11.40;49.60
13521;DHT22;6832;51.186;3.236;2023-03-02T06:16:06;11.50;49.70
13521;DHT22;6832;51.186;3.236;2023-03-02T06:18:35;11.40;49.60
13521;DHT22;6832;51.186;3.236;2023-03-02T06:21:04;11.40;49.60
13521;DHT22;6832;51.186;3.236;2023-03-02T06:23:31;11.40;49.70
13521;DHT22;6832;51.186;3.236;2023-03-02T06:25:58;11.40;49.70
13521;DHT22;6832;51.186;3.236;2023-03-02T06:28:25;11.40;49.70
13521;DHT22;6832;51.186;3.236;2023-03-02T06:30:52;11.40;49.70
13521;DHT22;6832;51.186;3.236;2023-03-02T06:33:21;11.40;49.60
13521;DHT22;6832;51.186;3.236;2023-03-02T06:35:48;11.40;49.60
13521;DHT22;6832;51.186;3.236;2023-03-02T06:38:16;11.40;49.70
13521;DHT22;6832;51.186;3.236;2023-03-02T06:40:44;11.40;49.70
13521;DHT22;6832;51.186;3.236;2023-03-02T06:43:11;11.40;49.60
13521;DHT22;6832;51.186;3.236;2023-03-02T06:45:38;11.40;49.70
13521;DHT22;6832;51.186;3.236;2023-03-02T06:48:05;11.40;49.70
13521;DHT22;6832;51.186;3.236;2023-03-02T06:50:32;11.30;49.50
13521;DHT22;6832;51.186;3.236;2023-03-02T06:52:59;11.40;49.60
13521;DHT22;6832;51.186;3.236;2023-03-02T06:55:28;11.40;49.60
13521;DHT22;6832;51.186;3.236;2023-03-02T06:57:55;11.40;49.60
13521;DHT22;6832;51.186;3.236;2023-03-02T07:00:22;11.30;49.50
13521;DHT22;6832;51.186;3.236;2023-03-02T07:02:53;11.40;49.60
13521;DHT22;6832;51.186;3.236;2023-03-02T07:05:20;11.30;49.50
13521;DHT22;6832;51.186;3.236;2023-03-02T07:07:49;11.40;49.60
13521;DHT22;6832;51.186;3.236;2023-03-02T07:10:16;11.30;49.60
13521;DHT22;6832;51.186;3.236;2023-03-02T07:12:44;11.30;49.50
13521;DHT22;6832;51.186;3.236;2023-03-02T07:15:11;11.30;49.50
13521;DHT22;6832;51.186;3.236;2023-03-02T07:17:40;11.30;49.60
13521;DHT22;6832;51.186;3.236;2023-03-02T07:20:09;11.40;49.70
13521;DHT22;6832;51.186;3.236;2023-03-02T07:22:36;11.30;49.60
13521;DHT22;6832;51.186;3.236;2023-03-02T07:25:04;11.30;49.60
13521;DHT22;6832;51.186;3.236;2023-03-02T07:27:31;11.30;49.70
13521;DHT22;6832;51.186;3.236;2023-03-02T07:29:59;11.30;49.70
13521;DHT22;6832;51.186;3.236;2023-03-02T07:32:27;11.30;49.70
13521;DHT22;6832;51.186;3.236;2023-03-02T07:34:54;11.40;49.70
13521;DHT22;6832;51.186;3.236;2023-03-02T07:37:24;11.30;49.70
13521;DHT22;6832;51.186;3.236;2023-03-02T07:39:50;11.30;49.70
13521;DHT22;6832;51.186;3.236;2023-03-02T07:42:18;11.30;49.90
13521;DHT22;6832;51.186;3.236;2023-03-02T07:44:45;11.30;49.70
13521;DHT22;6832;51.186;3.236;2023-03-02T07:47:14;11.40;49.80
13521;DHT22;6832;51.186;3.236;2023-03-02T07:49:41;11.30;49.70
13521;DHT22;6832;51.186;3.236;2023-03-02T07:52:07;11.30;49.70
13521;DHT22;6832;51.186;3.236;2023-03-02T07:54:34;11.30;49.80
13521;DHT22;6832;51.186;3.236;2023-03-02T07:57:01;11.30;49.80
13521;DHT22;6832;51.186;3.236;2023-03-02T07:59:28;11.30;49.90
13521;DHT22;6832;51.186;3.236;2023-03-02T08:01:56;11.30;50.40
13521;DHT22;6832;51.186;3.236;2023-03-02T08:04:24;11.30;49.90
13521;DHT22;6832;51.186;3.236;2023-03-02T08:06:51;11.30;49.90
13521;DHT22;6832;51.186;3.236;2023-03-02T08:09:18;11.30;49.80
13521;DHT22;6832;51.186;3.236;2023-03-02T08:11:45;11.20;49.90
13521;DHT22;6832;51.186;3.236;2023-03-02T08:14:13;11.20;50.00
13521;DHT22;6832;51.186;3.236;2023-03-02T08:16:40;11.30;50.00
13521;DHT22;6832;51.186;3.236;2023-03-02T08:19:07;11.30;50.00
13521;DHT22;6832;51.186;3.236;2023-03-02T08:21:35;11.30;50.00
13521;DHT22;6832;51.186;3.236;2023-03-02T08:24:03;11.30;49.90
13521;DHT22;6832;51.186;3.236;2023-03-02T08:26:30;11.30;49.90
13521;DHT22;6832;51.186;3.236;2023-03-02T08:28:57;11.30;49.90
13521;DHT22;6832;51.186;3.236;2023-03-02T08:31:26;11.40;50.00
13521;DHT22;6832;51.186;3.236;2023-03-02T08:33:55;11.40;50.00
13521;DHT22;6832;51.186;3.236;2023-03-02T08:36:27;11.40;50.00
13521;DHT22;6832;51.186;3.236;2023-03-02T08:38:56;11.30;49.90
13521;DHT22;6832;51.186;3.236;2023-03-02T08:41:23;11.40;50.00
13521;DHT22;6832;51.186;3.236;2023-03-02T08:43:50;11.40;50.00
13521;DHT22;6832;51.186;3.236;2023-03-02T08:46:20;11.40;50.00
13521;DHT22;6832;51.186;3.236;2023-03-02T08:48:48;11.40;50.00
13521;DHT22;6832;51.186;3.236;2023-03-02T08:51:17;11.40;50.10
13521;DHT22;6832;51.186;3.236;2023-03-02T08:53:46;11.40;50.10
13521;DHT22;6832;51.186;3.236;2023-03-02T08:56:24;11.40;50.10
13521;DHT22;6832;51.186;3.236;2023-03-02T08:58:52;11.40;50.20
13521;DHT22;6832;51.186;3.236;2023-03-02T09:01:21;11.40;50.10
13521;DHT22;6832;51.186;3.236;2023-03-02T09:03:48;11.40;50.20
13521;DHT22;6832;51.186;3.236;2023-03-02T09:06:16;11.40;50.20
13521;DHT22;6832;51.186;3.236;2023-03-02T09:08:43;11.40;50.20
13521;DHT22;6832;51.186;3.236;2023-03-02T09:11:10;11.40;50.20
13521;DHT22;6832;51.186;3.236;2023-03-02T09:13:38;11.40;50.20
13521;DHT22;6832;51.186;3.236;2023-03-02T09:16:06;11.50;50.20
13521;DHT22;6832;51.186;3.236;2023-03-02T09:18:34;11.50;50.20
13521;DHT22;6832;51.186;3.236;2023-03-02T09:21:01;11.50;50.20
13521;DHT22;6832;51.186;3.236;2023-03-02T09:23:29;11.50;50.20
13521;DHT22;6832;51.186;3.236;2023-03-02T09:25:56;11.50;50.20
13521;DHT22;6832;51.186;3.236;2023-03-02T09:28:23;11.50;50.20
13521;DHT22;6832;51.186;3.236;2023-03-02T09:30:53;11.50;50.20
13521;DHT22;6832;51.186;3.236;2023-03-02T09:33:20;11.50;50.20
13521;DHT22;6832;51.186;3.236;2023-03-02T09:35:47;11.50;50.20
13521;DHT22;6832;51.186;3.236;2023-03-02T09:38:15;11.50;50.30
13521;DHT22;6832;51.186;3.236;2023-03-02T09:41:06;11.50;50.20
13521;DHT22;6832;51.186;3.236;2023-03-02T09:43:42;11.50;50.30
13521;DHT22;6832;51.186;3.236;2023-03-02T09:46:18;11.60;50.40
13521;DHT22;6832;51.186;3.236;2023-03-02T09:49:04;11.60;50.40
13521;DHT22;6832;51.186;3.236;2023-03-02T09:51:36;11.60;50.40
13521;DHT22;6832;51.186;3.236;2023-03-02T09:54:08;11.60;50.40
13521;DHT22;6832;51.186;3.236;2023-03-02T09:56:42;11.60;50.40
13521;DHT22;6832;51.186;3.236;2023-03-02T09:59:19;11.60;50.50
13521;DHT22;6832;51.186;3.236;2023-03-02T10:01:52;11.60;50.70
13521;DHT22;6832;51.186;3.236;2023-03-02T10:04:25;11.60;50.70
13521;DHT22;6832;51.186;3.236;2023-03-02T10:06:55;11.60;50.70
13521;DHT22;6832;51.186;3.236;2023-03-02T10:09:26;11.70;50.70
13521;DHT22;6832;51.186;3.236;2023-03-02T10:12:14;11.70;50.70
13521;DHT22;6832;51.186;3.236;2023-03-02T10:14:47;11.70;50.70
13521;DHT22;6832;51.186;3.236;2023-03-02T10:17:39;11.80;50.70
13521;DHT22;6832;51.186;3.236;2023-03-02T10:20:13;11.80;50.70
13521;DHT22;6832;51.186;3.236;2023-03-02T10:22:45;11.80;50.70
13521;DHT22;6832;51.186;3.236;2023-03-02T10:25:23;11.80;50.70
13521;DHT22;6832;51.186;3.236;2023-03-02T10:28:00;11.80;50.60
13521;DHT22;6832;51.186;3.236;2023-03-02T10:30:29;11.90;50.70
13521;DHT22;6832;51.186;3.236;2023-03-02T10:33:03;11.80;50.70
13521;DHT22;6832;51.186;3.236;2023-03-02T10:35:37;11.90;50.80
13521;DHT22;6832;51.186;3.236;2023-03-02T10:38:12;11.90;50.80
13521;DHT22;6832;51.186;3.236;2023-03-02T10:40:45;11.90;50.80
13521;DHT22;6832;51.186;3.236;2023-03-02T10:43:16;12.00;50.90
13521;DHT22;6832;51.186;3.236;2023-03-02T10:45:44;12.00;50.90
13521;DHT22;6832;51.186;3.236;2023-03-02T10:48:13;12.00;50.90
13521;DHT22;6832;51.186;3.236;2023-03-02T10:50:43;12.00;50.90
13521;DHT22;6832;51.186;3.236;2023-03-02T10:53:17;12.00;50.80
13521;DHT22;6832;51.186;3.236;2023-03-02T10:55:46;12.00;50.90
13521;DHT22;6832;51.186;3.236;2023-03-02T10:58:27;12.10;51.00
13521;DHT22;6832;51.186;3.236;2023-03-02T11:00:59;12.10;51.00
13521;DHT22;6832;51.186;3.236;2023-03-02T11:03:29;12.10;51.00
13521;DHT22;6832;51.186;3.236;2023-03-02T11:06:08;12.20;51.00
13521;DHT22;6832;51.186;3.236;2023-03-02T11:08:36;12.20;51.00
13521;DHT22;6832;51.186;3.236;2023-03-02T11:11:03;12.20;51.00
13521;DHT22;6832;51.186;3.236;2023-03-02T11:13:33;12.20;51.00
13521;DHT22;6832;51.186;3.236;2023-03-02T11:16:03;12.20;51.00
13521;DHT22;6832;51.186;3.236;2023-03-02T11:18:56;12.30;51.10
13521;DHT22;6832;51.186;3.236;2023-03-02T11:21:29;12.30;51.10
13521;DHT22;6832;51.186;3.236;2023-03-02T11:24:02;12.40;51.20
13521;DHT22;6832;51.186;3.236;2023-03-02T11:26:43;12.30;51.10
13521;DHT22;6832;51.186;3.236;2023-03-02T11:29:20;12.40;51.10
13521;DHT22;6832;51.186;3.236;2023-03-02T11:31:53;12.40;51.20
13521;DHT22;6832;51.186;3.236;2023-03-02T11:34:34;12.40;51.20
13521;DHT22;6832;51.186;3.236;2023-03-02T11:37:20;12.40;51.30
13521;DHT22;6832;51.186;3.236;2023-03-02T11:40:10;12.50;51.30
13521;DHT22;6832;51.186;3.236;2023-03-02T11:42:42;12.50;51.30
13521;DHT22;6832;51.186;3.236;2023-03-02T11:45:16;12.50;51.30
13521;DHT22;6832;51.186;3.236;2023-03-02T11:47:48;12.50;51.30
13521;DHT22;6832;51.186;3.236;2023-03-02T11:50:18;12.60;51.40
13521;DHT22;6832;51.186;3.236;2023-03-02T11:52:50;12.60;51.40
13521;DHT22;6832;51.186;3.236;2023-03-02T11:55:20;12.60;51.40
13521;DHT22;6832;51.186;3.236;2023-03-02T11:57:50;12.60;51.40
13521;DHT22;6832;51.186;3.236;2023-03-02T12:00:27;12.70;51.40
13521;DHT22;6832;51.186;3.236;2023-03-02T12:03:04;12.70;51.50
13521;DHT22;6832;51.186;3.236;2023-03-02T12:05:34;12.70;51.40
13521;DHT22;6832;51.186;3.236;2023-03-02T12:08:04;12.70;51.40
13521;DHT22;6832;51.186;3.236;2023-03-02T12:10:35;12.80;51.40
13521;DHT22;6832;51.186;3.236;2023-03-02T12:13:12;12.80;51.40
13521;DHT22;6832;51.186;3.236;2023-03-02T12:15:41;12.80;51.40
13521;DHT22;6832;51.186;3.236;2023-03-02T12:18:43;12.80;51.40
13521;DHT22;6832;51.186;3.236;2023-03-02T12:21:24;12.90;51.60
13521;DHT22;6832;51.186;3.236;2023-03-02T12:23:59;12.90;52.00
13521;DHT22;6832;51.186;3.236;2023-03-02T12:26:47;12.90;51.50
13521;DHT22;6832;51.186;3.236;2023-03-02T12:29:40;12.90;51.50
13521;DHT22;6832;51.186;3.236;2023-03-02T12:32:12;13.00;51.60
13521;DHT22;6832;51.186;3.236;2023-03-02T12:34:52;13.00;51.50
13521;DHT22;6832;51.186;3.236;2023-03-02T12:37:23;13.00;51.50
13521;DHT22;6832;51.186;3.236;2023-03-02T12:43:36;13.10;51.70
13521;DHT22;6832;51.186;3.236;2023-03-02T12:46:23;13.10;51.70
13521;DHT22;6832;51.186;3.236;2023-03-02T12:48:57;13.20;51.70
13521;DHT22;6832;51.186;3.236;2023-03-02T12:51:46;13.20;51.70
13521;DHT22;6832;51.186;3.236;2023-03-02T12:54:16;13.20;51.70
13521;DHT22;6832;51.186;3.236;2023-03-02T12:56:47;13.20;51.70
13521;DHT22;6832;51.186;3.236;2023-03-02T12:59:22;13.20;51.70
13521;DHT22;6832;51.186;3.236;2023-03-02T13:01:50;13.20;51.70
13521;DHT22;6832;51.186;3.236;2023-03-02T13:04:22;13.30;51.70
13521;DHT22;6832;51.186;3.236;2023-03-02T13:06:49;13.30;51.80
13521;DHT22;6832;51.186;3.236;2023-03-02T13:09:17;13.30;51.70
13521;DHT22;6832;51.186;3.236;2023-03-02T13:11:46;13.30;51.80
13521;DHT22;6832;51.186;3.236;2023-03-02T13:14:24;13.40;51.80
13521;DHT22;6832;51.186;3.236;2023-03-02T13:16:59;13.40;51.90
13521;DHT22;6832;51.186;3.236;2023-03-02T13:19:28;13.40;51.80
13521;DHT22;6832;51.186;3.236;2023-03-02T13:21:57;13.50;51.90
13521;DHT22;6832;51.186;3.236;2023-03-02T13:24:30;13.40;51.80
13521;DHT22;6832;51.186;3.236;2023-03-02T13:26:59;13.50;51.90
13521;DHT22;6832;51.186;3.236;2023-03-02T13:29:29;13.50;51.90
13521;DHT22;6832;51.186;3.236;2023-03-02T13:31:56;13.50;51.80
13521;DHT22;6832;51.186;3.236;2023-03-02T13:34:25;13.50;51.90
13521;DHT22;6832;51.186;3.236;2023-03-02T13:36:53;13.50;51.80
13521;DHT22;6832;51.186;3.236;2023-03-02T13:39:26;13.50;51.80
13521;DHT22;6832;51.186;3.236;2023-03-02T13:44:55;13.60;51.90
13521;DHT22;6832;51.186;3.236;2023-03-02T13:47:23;13.60;51.80
13521;DHT22;6832;51.186;3.236;2023-03-02T13:49:51;13.60;51.80
13521;DHT22;6832;51.186;3.236;2023-03-02T13:52:22;13.60;51.90
13521;DHT22;6832;51.186;3.236;2023-03-02T13:54:51;13.70;51.90
13521;DHT22;6832;51.186;3.236;2023-03-02T13:57:25;13.70;51.90
13521;DHT22;6832;51.186;3.236;2023-03-02T13:59:53;13.70;51.90
13521;DHT22;6832;51.186;3.236;2023-03-02T14:02:23;13.70;51.90
13521;DHT22;6832;51.186;3.236;2023-03-02T14:05:04;13.70;51.90
13521;DHT22;6832;51.186;3.236;2023-03-02T14:07:31;13.70;51.90
13521;DHT22;6832;51.186;3.236;2023-03-02T14:09:58;13.90;52.00
13521;DHT22;6832;51.186;3.236;2023-03-02T14:12:29;13.80;51.90
13521;DHT22;6832;51.186;3.236;2023-03-02T14:15:00;13.80;51.90
13521;DHT22;6832;51.186;3.236;2023-03-02T14:17:27;13.80;51.90
13521;DHT22;6832;51.186;3.236;2023-03-02T14:19:54;13.80;51.90
13521;DHT22;6832;51.186;3.236;2023-03-02T14:22:34;13.90;52.00
13521;DHT22;6832;51.186;3.236;2023-03-02T14:25:00;13.90;52.00
13521;DHT22;6832;51.186;3.236;2023-03-02T14:27:29;13.80;51.90
13521;DHT22;6832;51.186;3.236;2023-03-02T14:29:57;13.90;52.00
13521;DHT22;6832;51.186;3.236;2023-03-02T14:32:24;13.90;51.90
13521;DHT22;6832;51.186;3.236;2023-03-02T14:34:51;13.90;51.90
13521;DHT22;6832;51.186;3.236;2023-03-02T14:37:21;13.90;51.90
13521;DHT22;6832;51.186;3.236;2023-03-02T14:39:51;13.90;51.90
13521;DHT22;6832;51.186;3.236;2023-03-02T14:42:20;13.90;51.90
13521;DHT22;6832;51.186;3.236;2023-03-02T14:44:49;14.00;52.00
13521;DHT22;6832;51.186;3.236;2023-03-02T14:47:16;13.90;51.90
13521;DHT22;6832;51.186;3.236;2023-03-02T14:49:44;14.00;52.00
13521;DHT22;6832;51.186;3.236;2023-03-02T14:52:14;14.00;52.00
13521;DHT22;6832;51.186;3.236;2023-03-02T14:55:06;14.00;52.00
13521;DHT22;6832;51.186;3.236;2023-03-02T14:57:35;14.00;52.00
13521;DHT22;6832;51.186;3.236;2023-03-02T15:00:07;14.00;51.90
13521;DHT22;6832;51.186;3.236;2023-03-02T15:02:34;14.10;52.00
13521;DHT22;6832;51.186;3.236;2023-03-02T15:05:01;14.10;52.00
13521;DHT22;6832;51.186;3.236;2023-03-02T15:07:28;14.10;52.00
13521;DHT22;6832;51.186;3.236;2023-03-02T15:09:56;14.10;52.00
13521;DHT22;6832;51.186;3.236;2023-03-02T15:12:24;14.10;52.00
13521;DHT22;6832;51.186;3.236;2023-03-02T15:14:50;14.10;52.00
13521;DHT22;6832;51.186;3.236;2023-03-02T15:17:19;14.10;52.00
13521;DHT22;6832;51.186;3.236;2023-03-02T15:19:47;14.10;52.00
13521;DHT22;6832;51.186;3.236;2023-03-02T15:22:14;14.20;52.00
13521;DHT22;6832;51.186;3.236;2023-03-02T15:24:40;14.30;52.10
13521;DHT22;6832;51.186;3.236;2023-03-02T15:27:07;14.20;52.00
13521;DHT22;6832;51.186;3.236;2023-03-02T15:29:34;14.20;52.00
13521;DHT22;6832;51.186;3.236;2023-03-02T15:32:04;14.20;52.00
13521;DHT22;6832;51.186;3.236;2023-03-02T15:34:39;14.20;52.00
13521;DHT22;6832;51.186;3.236;2023-03-02T15:37:06;14.20;52.00
13521;DHT22;6832;51.186;3.236;2023-03-02T15:39:33;14.20;52.00
13521;DHT22;6832;51.186;3.236;2023-03-02T15:42:04;14.30;52.10
13521;DHT22;6832;51.186;3.236;2023-03-02T15:44:30;14.20;52.00
13521;DHT22;6832;51.186;3.236;2023-03-02T15:46:59;14.30;52.20
13521;DHT22;6832;51.186;3.236;2023-03-02T15:49:26;14.30;52.10
13521;DHT22;6832;51.186;3.236;2023-03-02T15:51:57;14.30;52.10
13521;DHT22;6832;51.186;3.236;2023-03-02T15:54:25;14.30;52.10
13521;DHT22;6832;51.186;3.236;2023-03-02T15:56:52;14.30;52.10
13521;DHT22;6832;51.186;3.236;2023-03-02T15:59:19;14.30;52.10
13521;DHT22;6832;51.186;3.236;2023-03-02T16:01:49;14.30;52.10
13521;DHT22;6832;51.186;3.236;2023-03-02T16:04:17;14.40;52.20
13521;DHT22;6832;51.186;3.236;2023-03-02T16:06:50;14.40;52.70